Berlin Alexanderplatz, Germany

2:54 PM CET on November 28, 2014 (GMT +0100)
Berolinastr., Berlin-Mitte | Change Station
CLOSE
Current Station
Personal Weather Station
Location: Berlin, BERLIN
Elevation: 125 ft
Nearby Weather Stations

Elev 125 ft 52.52 °N, 13.42 °E | Updated 3 minutes ago

Mostly Cloudy
Mostly Cloudy
34.9 °F
Feels Like 35 °F
N
0.0
Wind Variable Wind from SW

Today
High -- | Low -- °F
--% Chance of Precip.
Yesterday
High -- | Low -- °F
Precip. -- in
7:49 AM 3:58 PM
Waxing Crescent, 40% visible
Pressure 30.12 in
Visibility 4.3 miles
Clouds Few 1300 ft
Mostly Cloudy 1400 ft
Windchill 35 °F
Dew Point 29 °F
Humidity 80%
Rainfall 0.00 in
Snow Depth Not available.
UV 0 out of 12
Pollen Not available.
Air Quality Not available.
Flu Activity Not available.
METAR EDDT 281350Z 08015KT 7000 FEW013 BKN014 01/M01 Q1020 TEMPO BKN015

More Conditions Fewer Conditions

Pressure 30.12 in
Visibility 4.3 miles
Clouds Few 1300 ft
Mostly Cloudy 1400 ft
Windchill 35 °F
Dew Point 29 °F
Humidity 80%
Rainfall 0.00 in
Snow Depth Not available.
UV 0 out of 12
Pollen Not available.
Air Quality Not available.
Flu Activity Not available.
METAR EDDT 281350Z 08015KT 7000 FEW013 BKN014 01/M01 Q1020 TEMPO BKN015

More Conditions Fewer Conditions

10-Day Weather Forecast

Almanac

Astronomy

Nov. 28, 2014 Rise Set
Actual Time
Civil Twilight
Nautical Twilight
Astronomical Twilight
Moon
Length of Visible Light
Length of Day
Tomorrow will be .
, % of the Moon is Illuminated

Today's Extremes

Country Highs Country Lows

Community

WunderPhotos

Upload Photos

1,774,210 photos uploaded!

WunderBlogs® & News

Nearby

Air Quality

  Air Quality AQ Index Pollutant
Not available.

Snow Depth

Station Depth Elevation

Earthquake Activity

City Distance Mag. Time & Date
Minimum magnitude displayed is 2.5.

Coastal Water Temperatures

Place Temperature

Nearby Weather Stations